Marchen Maersk — OUIY2 — position and weather

sailwx.info

Track history (hours):
 
Tides and Currents Weather Stations Pressure Air Temp Water Temp Dewpoint Dewpoint Depression Visibility Wind Speed Wind Dir Waves Ship Positions

Marchen Maersk

Last reported at 2016-Jul-01 00:11 UTC. Time now 2016-Jul-01 20:57 UTC.
Position N 44°46' E 014°04'.

Length 367 m; draft 12.7 m.

Type: Ship (hazmat cat A). MMSI: 220594000.

Date/timePositionNaut miles runAvg speedWind from/ knotsBaromVisibWave heightAir tempDewpointWater temp
2016-Jul-01 00:11N 44°46' E 014°04'2615.8
2016-Jun-30 22:32N 44°44' E 013°28'1919.2
2016-Jun-30 21:33N 45°00' E 013°13'1918.9
2016-Jun-30 20:33N 45°17' E 013°01'1716.6
2016-Jun-30 19:33N 45°31' E 013°12'2019.6
2016-Jun-30 18:34N 45°39' E 013°38'6 5.8
2016-Jun-30 17:34N 45°38' E 013°46'0 0.0
2016-Jun-30 16:31N 45°38' E 013°46'0 0.0
2016-Jun-30 15:31N 45°38' E 013°46'0 0.0
2016-Jun-30 14:34N 45°38' E 013°46'0 0.0
2016-Jun-30 13:31N 45°38' E 013°46'0 0.0
2016-Jun-30 12:34N 45°38' E 013°46'0 0.0
2016-Jun-30 09:28N 45°38' E 013°46'0 0.0
2016-Jun-30 07:33N 45°38' E 013°46'0 0.0
2016-Jun-30 06:28N 45°38' E 013°46'0 0.0
2016-Jun-30 05:25N 45°38' E 013°46'0 0.0
2016-Jun-29 17:34N 45°38' E 013°46'0 0.0
2016-Jun-29 16:31N 45°38' E 013°46'0 0.0
2016-Jun-29 08:34N 45°38' E 013°46'0 0.0
2016-Jun-29 06:25N 45°38' E 013°46'0 0.0
2016-Jun-29 04:34N 45°38' E 013°46'2 1.5
2016-Jun-29 03:33N 45°38' E 013°44'2 2.0
2016-Jun-29 02:33N 45°40' E 013°43'0 0.1
2016-Jun-29 01:06N 45°40' E 013°43'0 0.0
2016-Jun-29 00:27N 45°40' E 013°43'0 0.1
2016-Jun-28 23:30N 45°40' E 013°42'0 0.2
2016-Jun-28 22:30N 45°40' E 013°42'0 0.0
2016-Jun-28 21:33N 45°40' E 013°42'6 5.9
2016-Jun-28 20:33N 45°34' E 013°41'1 0.0
2016-Jun-27 03:33N 45°33' E 013°43'6 5.0
2016-Jun-27 02:27N 45°35' E 013°35'2612.7
2016-Jun-27 00:24N 45°13' E 013°14'1416.8
2016-Jun-26 23:33N 44°60' E 013°20'1716.9
2016-Jun-26 22:34N 44°46' E 013°33'1716.7
2016-Jun-26 21:33N 44°32' E 013°46'1716.9
2016-Jun-26 20:34N 44°18' E 013°59'1717.1
2016-Jun-26 19:33N 44°03' E 014°12'4017.5
2016-Jun-26 17:16N 43°32' E 014°46'21017.9
2016-Jun-26 05:29N 40°60' E 018°03'73417.8
2016-Jun-24 12:10N 33°35' E 030°17'1420.4
2016-Jun-24 11:29N 33°33' E 030°33'1920.4
2016-Jun-24 10:33N 33°30' E 030°56'2020.4
2016-Jun-24 09:34N 33°26' E 031°20'2020.2
2016-Jun-24 08:34N 33°23' E 031°44'2020.4
2016-Jun-24 07:34N 33°19' E 032°08'6220.5
2016-Jun-24 04:33N 33°09' E 033°20'2020.1
2016-Jun-24 03:34N 33°06' E 033°44'2420.1
2016-Jun-24 02:21N 33°01' E 034°12'1620.4
2016-Jun-24 01:34N 32°58' E 034°31'2020.3
2016-Jun-24 00:34N 32°54' E 034°55'7 6.8
2016-Jun-23 23:33N 32°49' E 035°01'0 0.0
2016-Jun-23 22:33N 32°49' E 035°01'0 0.0
2016-Jun-23 21:33N 32°49' E 035°01'0 0.0
2016-Jun-23 20:27N 32°49' E 035°01'0 0.0
2016-Jun-23 19:30N 32°49' E 035°01'0 0.0
2016-Jun-23 18:33N 32°49' E 035°01'0 0.0
2016-Jun-23 17:33N 32°49' E 035°01'0 0.0
2016-Jun-23 16:33N 32°49' E 035°01'0 0.0
2016-Jun-23 15:33N 32°49' E 035°01'0 0.0
2016-Jun-23 14:30N 32°49' E 035°01'0 0.0
2016-Jun-23 13:33N 32°49' E 035°01'0 0.0
2016-Jun-23 12:33N 32°49' E 035°01'0 0.0
2016-Jun-23 11:33N 32°49' E 035°01'0 0.0
2016-Jun-23 10:33N 32°49' E 035°01'0 0.0
2016-Jun-23 09:33N 32°49' E 035°01'0 0.0
2016-Jun-23 08:33N 32°49' E 035°01'0 0.0
2016-Jun-23 07:33N 32°49' E 035°01'0 0.0
2016-Jun-23 05:33N 32°49' E 035°01'0 0.0
2016-Jun-23 04:33N 32°49' E 035°01'0 0.0
2016-Jun-23 03:33N 32°49' E 035°01'0 0.0
2016-Jun-23 02:33N 32°49' E 035°01'0 0.0
2016-Jun-23 01:33N 32°49' E 035°01'0 0.0
2016-Jun-23 00:33N 32°49' E 035°01'0 0.0
2016-Jun-22 23:33N 32°49' E 035°01'2 2.0
2016-Jun-22 22:33N 32°51' E 035°00'1414.3
2016-Jun-22 21:33N 32°54' E 034°44'2121.0
2016-Jun-22 20:34N 32°58' E 034°19'2222.0
2016-Jun-22 19:34N 32°57' E 033°53'2323.1
2016-Jun-22 18:34N 32°39' E 033°36'2322.7
2016-Jun-22 17:34N 32°22' E 033°19'2322.6
2016-Jun-22 16:33N 32°04' E 033°02'2322.6
2016-Jun-22 15:34N 31°47' E 032°45'2221.9
2016-Jun-22 14:32N 31°34' E 032°23'1817.3
2016-Jun-22 13:31N 31°16' E 032°22'4 2.0
2016-Jun-22 11:30N 31°12' E 032°21'0 0.0
2016-Jun-22 10:12N 31°12' E 032°21'0 0.0
2016-Jun-22 05:24N 31°12' E 032°21'0 0.0
2016-Jun-21 21:24N 31°12' E 032°21'0 0.0
2016-Jun-21 14:32N 31°12' E 032°21'4 4.6
2016-Jun-21 13:33N 31°08' E 032°19'9 9.4
2016-Jun-21 12:33N 30°59' E 032°19'11 9.4
2016-Jun-21 11:22N 30°47' E 032°19'  
Track history (hours):
 
Tides and Currents Weather Stations Pressure Air Temp Water Temp Dewpoint Dewpoint Depression Visibility Wind Speed Wind Dir Waves Ship Positions

Marchen Maersk

Last reported at 2016-Jul-01 00:11 UTC. Time now 2016-Jul-01 20:57 UTC.
Position N 44°46' E 014°04'.

Length 367 m; draft 12.7 m.

Type: Ship (hazmat cat A). MMSI: 220594000.

Date/timePositionNaut miles runAvg speedWind from/ knotsBaromVisibWave heightAir tempDewpointWater temp
2016-Jul-01 00:11N 44°46' E 014°04'2615.8
2016-Jun-30 22:32N 44°44' E 013°28'1919.2
2016-Jun-30 21:33N 45°00' E 013°13'1918.9
2016-Jun-30 20:33N 45°17' E 013°01'1716.6
2016-Jun-30 19:33N 45°31' E 013°12'2019.6
2016-Jun-30 18:34N 45°39' E 013°38'6 5.8
2016-Jun-30 17:34N 45°38' E 013°46'0 0.0
2016-Jun-30 16:31N 45°38' E 013°46'0 0.0
2016-Jun-30 15:31N 45°38' E 013°46'0 0.0
2016-Jun-30 14:34N 45°38' E 013°46'0 0.0
2016-Jun-30 13:31N 45°38' E 013°46'0 0.0
2016-Jun-30 12:34N 45°38' E 013°46'0 0.0
2016-Jun-30 09:28N 45°38' E 013°46'0 0.0
2016-Jun-30 07:33N 45°38' E 013°46'0 0.0
2016-Jun-30 06:28N 45°38' E 013°46'0 0.0
2016-Jun-30 05:25N 45°38' E 013°46'0 0.0
2016-Jun-29 17:34N 45°38' E 013°46'0 0.0
2016-Jun-29 16:31N 45°38' E 013°46'0 0.0
2016-Jun-29 08:34N 45°38' E 013°46'0 0.0
2016-Jun-29 06:25N 45°38' E 013°46'0 0.0
2016-Jun-29 04:34N 45°38' E 013°46'2 1.5
2016-Jun-29 03:33N 45°38' E 013°44'2 2.0
2016-Jun-29 02:33N 45°40' E 013°43'0 0.1
2016-Jun-29 01:06N 45°40' E 013°43'0 0.0
2016-Jun-29 00:27N 45°40' E 013°43'0 0.1
2016-Jun-28 23:30N 45°40' E 013°42'0 0.2
2016-Jun-28 22:30N 45°40' E 013°42'0 0.0
2016-Jun-28 21:33N 45°40' E 013°42'6 5.9
2016-Jun-28 20:33N 45°34' E 013°41'1 0.0
2016-Jun-27 03:33N 45°33' E 013°43'6 5.0
2016-Jun-27 02:27N 45°35' E 013°35'2612.7
2016-Jun-27 00:24N 45°13' E 013°14'1416.8
2016-Jun-26 23:33N 44°60' E 013°20'1716.9
2016-Jun-26 22:34N 44°46' E 013°33'1716.7
2016-Jun-26 21:33N 44°32' E 013°46'1716.9
2016-Jun-26 20:34N 44°18' E 013°59'1717.1
2016-Jun-26 19:33N 44°03' E 014°12'4017.5
2016-Jun-26 17:16N 43°32' E 014°46'21017.9
2016-Jun-26 05:29N 40°60' E 018°03'73417.8
2016-Jun-24 12:10N 33°35' E 030°17'1420.4
2016-Jun-24 11:29N 33°33' E 030°33'1920.4
2016-Jun-24 10:33N 33°30' E 030°56'2020.4
2016-Jun-24 09:34N 33°26' E 031°20'2020.2
2016-Jun-24 08:34N 33°23' E 031°44'2020.4
2016-Jun-24 07:34N 33°19' E 032°08'6220.5
2016-Jun-24 04:33N 33°09' E 033°20'2020.1
2016-Jun-24 03:34N 33°06' E 033°44'2420.1
2016-Jun-24 02:21N 33°01' E 034°12'1620.4
2016-Jun-24 01:34N 32°58' E 034°31'2020.3
2016-Jun-24 00:34N 32°54' E 034°55'7 6.8
2016-Jun-23 23:33N 32°49' E 035°01'0 0.0
2016-Jun-23 22:33N 32°49' E 035°01'0 0.0
2016-Jun-23 21:33N 32°49' E 035°01'0 0.0
2016-Jun-23 20:27N 32°49' E 035°01'0 0.0
2016-Jun-23 19:30N 32°49' E 035°01'0 0.0
2016-Jun-23 18:33N 32°49' E 035°01'0 0.0
2016-Jun-23 17:33N 32°49' E 035°01'0 0.0
2016-Jun-23 16:33N 32°49' E 035°01'0 0.0
2016-Jun-23 15:33N 32°49' E 035°01'0 0.0
2016-Jun-23 14:30N 32°49' E 035°01'0 0.0
2016-Jun-23 13:33N 32°49' E 035°01'0 0.0
2016-Jun-23 12:33N 32°49' E 035°01'0 0.0
2016-Jun-23 11:33N 32°49' E 035°01'0 0.0
2016-Jun-23 10:33N 32°49' E 035°01'0 0.0
2016-Jun-23 09:33N 32°49' E 035°01'0 0.0
2016-Jun-23 08:33N 32°49' E 035°01'0 0.0
2016-Jun-23 07:33N 32°49' E 035°01'0 0.0
2016-Jun-23 05:33N 32°49' E 035°01'0 0.0
2016-Jun-23 04:33N 32°49' E 035°01'0 0.0
2016-Jun-23 03:33N 32°49' E 035°01'0 0.0
2016-Jun-23 02:33N 32°49' E 035°01'0 0.0
2016-Jun-23 01:33N 32°49' E 035°01'0 0.0
2016-Jun-23 00:33N 32°49' E 035°01'0 0.0
2016-Jun-22 23:33N 32°49' E 035°01'2 2.0
2016-Jun-22 22:33N 32°51' E 035°00'1414.3
2016-Jun-22 21:33N 32°54' E 034°44'2121.0
2016-Jun-22 20:34N 32°58' E 034°19'2222.0
2016-Jun-22 19:34N 32°57' E 033°53'2323.1
2016-Jun-22 18:34N 32°39' E 033°36'2322.7
2016-Jun-22 17:34N 32°22' E 033°19'2322.6
2016-Jun-22 16:33N 32°04' E 033°02'2322.6
2016-Jun-22 15:34N 31°47' E 032°45'2221.9
2016-Jun-22 14:32N 31°34' E 032°23'1817.3
2016-Jun-22 13:31N 31°16' E 032°22'4 2.0
2016-Jun-22 11:30N 31°12' E 032°21'0 0.0
2016-Jun-22 10:12N 31°12' E 032°21'0 0.0
2016-Jun-22 05:24N 31°12' E 032°21'0 0.0
2016-Jun-21 21:24N 31°12' E 032°21'0 0.0
2016-Jun-21 14:32N 31°12' E 032°21'4 4.6
2016-Jun-21 13:33N 31°08' E 032°19'9 9.4
2016-Jun-21 12:33N 30°59' E 032°19'11 9.4
2016-Jun-21 11:22N 30°47' E 032°19'  

Dump ship's entire track history